Terminal Aerodrome Forecast
Issued by NWS

Current Version | Previous Version | Graphics & Text | Print | Product List | Glossary On
Versions: 1 2 3 4 5 6 7 8 9 10 11 12 13 14 15 16 17 18 19 20 21 22 23
000
FTUS41 KILN 132300
TAFLUK
TAF
KLUK 132340Z 1400/1424 20011KT P6SM FEW060 BKN200
     FM140900 21014G21KT P6SM VCSH BKN050 OVC120
     FM141300 21018G30KT P6SM -SHRA OVC050
     FM141700 23014G22KT P6SM -SHRA VCTS SCT025 OVC045CB
     FM142200 28012G20KT P6SM -RA SCT010 OVC028=

USA.gov is the U.S. government's official web portal to all federal, state and local government web resources and services.